Southport Airport
CYPG : rendu visible

Aérodrome :











RETROUVEZ-NOUS SUR...

 
LOGIN :

S'inscrire | Disclaimer

   EN    FR    IT 

 









Légende :    VFR   VFR Marginal   IFR   IFR Intensif   IFR Très Intensif
Visi : 
Plafond : 
>= 8 km
>= 3000ft
5 à 8 km
1000 à 3000 ft
1500m à 5 km
500 à 1000 ft
800 à 1500m
200 à 500 ft
< 800m
< 200 ft
Symboles :   Orages  Brouillard  Fortes neiges  Fortes précipitations  Vent > 20 kt






- Altitude de l'aérodrome : 885 ft
- Code IATA : YPG


CYPG - Southport

DERNIER METAR :
  • 181100Z 11009KT 15SM BKN220 04/03 A2945 RMK CI6 FST OBS SLP982

TAF TAF CYPG
Valide du 18 à 00h jusqu'au 18 à 12h UTC


172330Z 1800/1812 15012G22KT P6SM SCT180 BKN240
BECMG 1800/1802 15015KT
FM180800 15015KT P6SM FEW015 BKN220 RMK NXT FCST BY 180600Z



MET'MAP, la Météo Aéronautique d'un coup d'oeil ! - Copyright ORBIFLY Décembre 2007 - Disclaimer

ORBIFLY MET'MAP TEAM :

Programmation & Développement : Alexandra Zaïnal
Conception & Développement : Baudouin d'Aumeries
Co-Programmation & Développement : Marc-Olivier Méhu
Soutien technique & logistique : Manuel Goepfert

Contact : metmap@orbifly.com




SOURCES & CREDITS :

   NOAA       Earth
Advisory